sensor_id;sensor_type;location;lat;lon;timestamp;P1;durP1;ratioP1;P2;durP2;ratioP2
36189;SDS011;22232;50.914;13.858;2024-01-30T00:00:00;27.90;;;13.82;;
36189;SDS011;22232;50.914;13.858;2024-01-30T00:02:30;24.65;;;13.18;;
36189;SDS011;22232;50.914;13.858;2024-01-30T00:04:59;26.38;;;13.48;;
36189;SDS011;22232;50.914;13.858;2024-01-30T00:07:26;27.02;;;13.32;;
36189;SDS011;22232;50.914;13.858;2024-01-30T00:09:54;29.63;;;13.63;;
36189;SDS011;22232;50.914;13.858;2024-01-30T00:12:22;30.77;;;14.63;;
36189;SDS011;22232;50.914;13.858;2024-01-30T00:14:49;27.42;;;14.57;;
36189;SDS011;22232;50.914;13.858;2024-01-30T00:17:21;29.15;;;15.15;;
36189;SDS011;22232;50.914;13.858;2024-01-30T00:19:48;33.83;;;14.30;;
36189;SDS011;22232;50.914;13.858;2024-01-30T00:22:16;30.33;;;14.57;;
36189;SDS011;22232;50.914;13.858;2024-01-30T00:24:44;29.10;;;14.68;;
36189;SDS011;22232;50.914;13.858;2024-01-30T00:27:11;28.67;;;14.18;;
36189;SDS011;22232;50.914;13.858;2024-01-30T00:29:39;31.17;;;15.23;;
36189;SDS011;22232;50.914;13.858;2024-01-30T00:32:06;33.88;;;15.20;;
36189;SDS011;22232;50.914;13.858;2024-01-30T00:34:34;30.80;;;14.85;;
36189;SDS011;22232;50.914;13.858;2024-01-30T00:37:02;30.13;;;15.38;;
36189;SDS011;22232;50.914;13.858;2024-01-30T00:39:29;32.72;;;15.88;;
36189;SDS011;22232;50.914;13.858;2024-01-30T00:41:57;36.13;;;16.33;;
36189;SDS011;22232;50.914;13.858;2024-01-30T00:44:24;34.08;;;15.80;;
36189;SDS011;22232;50.914;13.858;2024-01-30T00:46:52;36.67;;;16.85;;
36189;SDS011;22232;50.914;13.858;2024-01-30T00:49:19;37.03;;;16.55;;
36189;SDS011;22232;50.914;13.858;2024-01-30T00:51:47;32.53;;;16.40;;
36189;SDS011;22232;50.914;13.858;2024-01-30T00:54:15;31.55;;;15.13;;
36189;SDS011;22232;50.914;13.858;2024-01-30T00:56:42;36.30;;;15.82;;
36189;SDS011;22232;50.914;13.858;2024-01-30T00:59:11;35.00;;;16.15;;
36189;SDS011;22232;50.914;13.858;2024-01-30T01:01:38;35.45;;;16.13;;
36189;SDS011;22232;50.914;13.858;2024-01-30T01:04:06;33.15;;;16.05;;
36189;SDS011;22232;50.914;13.858;2024-01-30T01:06:34;39.95;;;18.35;;
36189;SDS011;22232;50.914;13.858;2024-01-30T01:09:02;37.80;;;17.08;;
36189;SDS011;22232;50.914;13.858;2024-01-30T01:11:31;33.17;;;16.85;;
36189;SDS011;22232;50.914;13.858;2024-01-30T01:13:59;33.90;;;16.92;;
36189;SDS011;22232;50.914;13.858;2024-01-30T01:16:26;35.28;;;17.98;;
36189;SDS011;22232;50.914;13.858;2024-01-30T01:18:54;38.42;;;17.50;;
36189;SDS011;22232;50.914;13.858;2024-01-30T01:21:22;39.03;;;18.05;;
36189;SDS011;22232;50.914;13.858;2024-01-30T01:23:50;38.00;;;18.92;;
36189;SDS011;22232;50.914;13.858;2024-01-30T01:26:18;36.47;;;17.00;;
36189;SDS011;22232;50.914;13.858;2024-01-30T01:28:46;32.83;;;16.13;;
36189;SDS011;22232;50.914;13.858;2024-01-30T01:31:13;34.28;;;16.65;;
36189;SDS011;22232;50.914;13.858;2024-01-30T01:33:41;35.55;;;17.40;;
36189;SDS011;22232;50.914;13.858;2024-01-30T01:36:09;35.33;;;17.27;;
36189;SDS011;22232;50.914;13.858;2024-01-30T01:38:36;34.45;;;16.70;;
36189;SDS011;22232;50.914;13.858;2024-01-30T01:41:04;39.83;;;17.33;;
36189;SDS011;22232;50.914;13.858;2024-01-30T01:43:31;34.92;;;16.35;;
36189;SDS011;22232;50.914;13.858;2024-01-30T01:45:59;34.30;;;16.42;;
36189;SDS011;22232;50.914;13.858;2024-01-30T01:48:27;35.15;;;16.70;;
36189;SDS011;22232;50.914;13.858;2024-01-30T01:50:55;32.72;;;16.67;;
36189;SDS011;22232;50.914;13.858;2024-01-30T01:53:23;31.52;;;15.63;;
36189;SDS011;22232;50.914;13.858;2024-01-30T01:55:50;31.73;;;15.75;;
36189;SDS011;22232;50.914;13.858;2024-01-30T01:58:20;35.35;;;16.42;;
36189;SDS011;22232;50.914;13.858;2024-01-30T02:00:49;34.95;;;16.35;;
36189;SDS011;22232;50.914;13.858;2024-01-30T02:03:18;29.70;;;14.82;;
36189;SDS011;22232;50.914;13.858;2024-01-30T02:05:50;33.17;;;16.23;;
36189;SDS011;22232;50.914;13.858;2024-01-30T02:08:18;34.17;;;15.25;;
36189;SDS011;22232;50.914;13.858;2024-01-30T02:10:45;31.27;;;15.60;;
36189;SDS011;22232;50.914;13.858;2024-01-30T02:13:13;27.92;;;14.65;;
36189;SDS011;22232;50.914;13.858;2024-01-30T02:15:41;27.25;;;14.38;;
36189;SDS011;22232;50.914;13.858;2024-01-30T02:18:08;31.95;;;14.27;;
36189;SDS011;22232;50.914;13.858;2024-01-30T02:20:36;35.20;;;16.13;;
36189;SDS011;22232;50.914;13.858;2024-01-30T02:23:06;29.80;;;14.60;;
36189;SDS011;22232;50.914;13.858;2024-01-30T02:25:39;28.60;;;14.60;;
36189;SDS011;22232;50.914;13.858;2024-01-30T02:28:13;31.73;;;13.73;;
36189;SDS011;22232;50.914;13.858;2024-01-30T02:30:44;32.65;;;14.13;;
36189;SDS011;22232;50.914;13.858;2024-01-30T02:33:13;26.08;;;13.52;;
36189;SDS011;22232;50.914;13.858;2024-01-30T02:35:41;29.58;;;14.32;;
36189;SDS011;22232;50.914;13.858;2024-01-30T02:38:08;26.58;;;13.40;;
36189;SDS011;22232;50.914;13.858;2024-01-30T02:40:36;28.88;;;14.13;;
36189;SDS011;22232;50.914;13.858;2024-01-30T02:43:04;25.45;;;13.77;;
36189;SDS011;22232;50.914;13.858;2024-01-30T02:45:32;30.70;;;14.18;;
36189;SDS011;22232;50.914;13.858;2024-01-30T02:47:59;25.63;;;13.60;;
36189;SDS011;22232;50.914;13.858;2024-01-30T02:50:27;28.48;;;13.60;;
36189;SDS011;22232;50.914;13.858;2024-01-30T02:52:55;26.73;;;12.80;;
36189;SDS011;22232;50.914;13.858;2024-01-30T02:55:22;29.75;;;13.18;;
36189;SDS011;22232;50.914;13.858;2024-01-30T02:57:50;26.23;;;13.60;;
36189;SDS011;22232;50.914;13.858;2024-01-30T03:00:18;27.83;;;13.48;;
36189;SDS011;22232;50.914;13.858;2024-01-30T03:02:46;27.20;;;12.88;;
36189;SDS011;22232;50.914;13.858;2024-01-30T03:05:14;29.20;;;12.70;;
36189;SDS011;22232;50.914;13.858;2024-01-30T03:07:42;23.90;;;11.95;;
36189;SDS011;22232;50.914;13.858;2024-01-30T03:10:09;26.08;;;12.65;;
36189;SDS011;22232;50.914;13.858;2024-01-30T03:12:37;24.67;;;12.32;;
36189;SDS011;22232;50.914;13.858;2024-01-30T03:15:05;26.73;;;12.10;;
36189;SDS011;22232;50.914;13.858;2024-01-30T03:17:32;26.92;;;13.30;;
36189;SDS011;22232;50.914;13.858;2024-01-30T03:20:00;25.15;;;12.32;;
36189;SDS011;22232;50.914;13.858;2024-01-30T03:22:28;28.38;;;12.60;;
36189;SDS011;22232;50.914;13.858;2024-01-30T03:24:55;24.40;;;11.68;;
36189;SDS011;22232;50.914;13.858;2024-01-30T03:27:23;22.60;;;11.10;;
36189;SDS011;22232;50.914;13.858;2024-01-30T03:29:51;24.40;;;11.70;;
36189;SDS011;22232;50.914;13.858;2024-01-30T03:32:19;25.98;;;11.95;;
36189;SDS011;22232;50.914;13.858;2024-01-30T03:34:46;31.67;;;11.60;;
36189;SDS011;22232;50.914;13.858;2024-01-30T03:37:14;24.08;;;10.95;;
36189;SDS011;22232;50.914;13.858;2024-01-30T03:39:42;22.20;;;11.70;;
36189;SDS011;22232;50.914;13.858;2024-01-30T03:42:09;23.38;;;11.63;;
36189;SDS011;22232;50.914;13.858;2024-01-30T03:44:37;24.05;;;11.73;;
36189;SDS011;22232;50.914;13.858;2024-01-30T03:47:04;24.25;;;11.63;;
36189;SDS011;22232;50.914;13.858;2024-01-30T03:49:32;24.17;;;11.82;;
36189;SDS011;22232;50.914;13.858;2024-01-30T03:51:59;23.83;;;11.23;;
36189;SDS011;22232;50.914;13.858;2024-01-30T03:54:27;27.25;;;11.90;;
36189;SDS011;22232;50.914;13.858;2024-01-30T03:56:55;23.90;;;12.15;;
36189;SDS011;22232;50.914;13.858;2024-01-30T03:59:22;25.13;;;11.70;;
36189;SDS011;22232;50.914;13.858;2024-01-30T04:01:51;25.33;;;12.60;;
36189;SDS011;22232;50.914;13.858;2024-01-30T04:04:19;25.65;;;12.50;;
36189;SDS011;22232;50.914;13.858;2024-01-30T04:06:47;28.13;;;12.82;;
36189;SDS011;22232;50.914;13.858;2024-01-30T04:09:15;25.40;;;11.63;;
36189;SDS011;22232;50.914;13.858;2024-01-30T04:11:43;19.95;;;11.50;;
36189;SDS011;22232;50.914;13.858;2024-01-30T04:14:10;26.55;;;11.73;;
36189;SDS011;22232;50.914;13.858;2024-01-30T04:16:38;26.58;;;12.23;;
36189;SDS011;22232;50.914;13.858;2024-01-30T04:19:05;27.17;;;12.68;;
36189;SDS011;22232;50.914;13.858;2024-01-30T04:21:33;28.52;;;12.48;;
36189;SDS011;22232;50.914;13.858;2024-01-30T04:24:00;24.65;;;11.60;;
36189;SDS011;22232;50.914;13.858;2024-01-30T04:26:28;24.15;;;11.45;;
36189;SDS011;22232;50.914;13.858;2024-01-30T04:28:55;26.58;;;11.45;;
36189;SDS011;22232;50.914;13.858;2024-01-30T04:31:23;23.20;;;11.50;;
36189;SDS011;22232;50.914;13.858;2024-01-30T04:33:51;23.05;;;11.77;;
36189;SDS011;22232;50.914;13.858;2024-01-30T04:36:18;28.70;;;11.95;;
36189;SDS011;22232;50.914;13.858;2024-01-30T04:38:46;24.50;;;11.68;;
36189;SDS011;22232;50.914;13.858;2024-01-30T04:41:14;27.55;;;11.75;;
36189;SDS011;22232;50.914;13.858;2024-01-30T04:43:41;27.20;;;11.27;;
36189;SDS011;22232;50.914;13.858;2024-01-30T04:46:09;27.70;;;12.60;;
36189;SDS011;22232;50.914;13.858;2024-01-30T04:48:36;24.48;;;11.80;;
36189;SDS011;22232;50.914;13.858;2024-01-30T04:51:04;24.33;;;11.10;;
36189;SDS011;22232;50.914;13.858;2024-01-30T04:53:32;24.80;;;12.82;;
36189;SDS011;22232;50.914;13.858;2024-01-30T04:55:59;24.65;;;12.02;;
36189;SDS011;22232;50.914;13.858;2024-01-30T04:58:27;27.73;;;12.95;;
36189;SDS011;22232;50.914;13.858;2024-01-30T05:00:54;25.05;;;12.60;;
36189;SDS011;22232;50.914;13.858;2024-01-30T05:03:23;27.77;;;13.40;;
36189;SDS011;22232;50.914;13.858;2024-01-30T05:05:51;31.40;;;14.02;;
36189;SDS011;22232;50.914;13.858;2024-01-30T05:08:19;32.80;;;13.75;;
36189;SDS011;22232;50.914;13.858;2024-01-30T05:10:46;28.08;;;12.95;;
36189;SDS011;22232;50.914;13.858;2024-01-30T05:13:14;27.08;;;12.77;;
36189;SDS011;22232;50.914;13.858;2024-01-30T05:15:41;25.50;;;12.55;;
36189;SDS011;22232;50.914;13.858;2024-01-30T05:18:09;24.63;;;13.38;;
36189;SDS011;22232;50.914;13.858;2024-01-30T05:20:37;28.98;;;13.63;;
36189;SDS011;22232;50.914;13.858;2024-01-30T05:23:05;28.08;;;12.52;;
36189;SDS011;22232;50.914;13.858;2024-01-30T05:25:32;27.45;;;13.43;;
36189;SDS011;22232;50.914;13.858;2024-01-30T05:28:00;25.73;;;13.70;;
36189;SDS011;22232;50.914;13.858;2024-01-30T05:30:28;26.75;;;12.63;;
36189;SDS011;22232;50.914;13.858;2024-01-30T05:32:55;29.42;;;12.98;;
36189;SDS011;22232;50.914;13.858;2024-01-30T05:35:23;25.27;;;12.95;;
36189;SDS011;22232;50.914;13.858;2024-01-30T05:37:50;23.00;;;12.15;;
36189;SDS011;22232;50.914;13.858;2024-01-30T05:40:18;26.70;;;12.88;;
36189;SDS011;22232;50.914;13.858;2024-01-30T05:42:45;26.20;;;12.85;;
36189;SDS011;22232;50.914;13.858;2024-01-30T05:45:13;28.13;;;13.13;;
36189;SDS011;22232;50.914;13.858;2024-01-30T05:47:40;26.83;;;12.75;;
36189;SDS011;22232;50.914;13.858;2024-01-30T05:50:08;27.00;;;12.68;;
36189;SDS011;22232;50.914;13.858;2024-01-30T05:52:36;24.58;;;13.23;;
36189;SDS011;22232;50.914;13.858;2024-01-30T05:55:03;27.85;;;13.02;;
36189;SDS011;22232;50.914;13.858;2024-01-30T05:57:32;36.38;;;13.07;;
36189;SDS011;22232;50.914;13.858;2024-01-30T05:59:59;30.40;;;13.52;;
36189;SDS011;22232;50.914;13.858;2024-01-30T06:02:27;31.60;;;13.65;;
36189;SDS011;22232;50.914;13.858;2024-01-30T06:04:54;26.08;;;13.38;;
36189;SDS011;22232;50.914;13.858;2024-01-30T06:07:22;28.90;;;13.48;;
36189;SDS011;22232;50.914;13.858;2024-01-30T06:09:50;32.08;;;13.15;;
36189;SDS011;22232;50.914;13.858;2024-01-30T06:12:17;29.20;;;14.50;;
36189;SDS011;22232;50.914;13.858;2024-01-30T06:14:45;29.90;;;13.88;;
36189;SDS011;22232;50.914;13.858;2024-01-30T06:17:13;29.92;;;13.82;;
36189;SDS011;22232;50.914;13.858;2024-01-30T06:19:41;27.08;;;13.43;;
36189;SDS011;22232;50.914;13.858;2024-01-30T06:22:09;26.88;;;13.07;;
36189;SDS011;22232;50.914;13.858;2024-01-30T06:24:36;27.17;;;13.88;;
36189;SDS011;22232;50.914;13.858;2024-01-30T06:27:04;25.95;;;13.73;;
36189;SDS011;22232;50.914;13.858;2024-01-30T06:29:31;26.70;;;13.07;;
36189;SDS011;22232;50.914;13.858;2024-01-30T06:31:59;33.10;;;13.90;;
36189;SDS011;22232;50.914;13.858;2024-01-30T06:34:26;28.98;;;14.05;;
36189;SDS011;22232;50.914;13.858;2024-01-30T06:36:54;31.08;;;14.75;;
36189;SDS011;22232;50.914;13.858;2024-01-30T06:39:22;29.98;;;14.30;;
36189;SDS011;22232;50.914;13.858;2024-01-30T06:41:50;31.00;;;14.43;;
36189;SDS011;22232;50.914;13.858;2024-01-30T06:44:18;26.88;;;12.65;;
36189;SDS011;22232;50.914;13.858;2024-01-30T06:46:45;25.92;;;13.27;;
36189;SDS011;22232;50.914;13.858;2024-01-30T06:49:13;27.95;;;13.88;;
36189;SDS011;22232;50.914;13.858;2024-01-30T06:51:41;33.70;;;13.25;;
36189;SDS011;22232;50.914;13.858;2024-01-30T06:54:08;32.83;;;13.95;;
36189;SDS011;22232;50.914;13.858;2024-01-30T06:56:36;25.75;;;13.45;;
36189;SDS011;22232;50.914;13.858;2024-01-30T06:59:03;26.00;;;13.82;;
36189;SDS011;22232;50.914;13.858;2024-01-30T07:01:32;28.20;;;13.70;;
36189;SDS011;22232;50.914;13.858;2024-01-30T07:04:00;28.05;;;14.30;;
36189;SDS011;22232;50.914;13.858;2024-01-30T07:06:27;32.55;;;14.27;;
36189;SDS011;22232;50.914;13.858;2024-01-30T07:08:55;27.27;;;13.43;;
36189;SDS011;22232;50.914;13.858;2024-01-30T07:11:23;26.23;;;13.55;;
36189;SDS011;22232;50.914;13.858;2024-01-30T07:13:51;25.83;;;13.35;;
36189;SDS011;22232;50.914;13.858;2024-01-30T07:16:19;25.65;;;12.80;;
36189;SDS011;22232;50.914;13.858;2024-01-30T07:18:46;27.60;;;13.25;;
36189;SDS011;22232;50.914;13.858;2024-01-30T07:21:14;27.63;;;12.13;;
36189;SDS011;22232;50.914;13.858;2024-01-30T07:23:42;22.83;;;11.73;;
36189;SDS011;22232;50.914;13.858;2024-01-30T07:26:10;24.17;;;12.82;;
36189;SDS011;22232;50.914;13.858;2024-01-30T07:28:38;24.08;;;12.70;;
36189;SDS011;22232;50.914;13.858;2024-01-30T07:31:05;26.30;;;12.43;;
36189;SDS011;22232;50.914;13.858;2024-01-30T07:36:55;27.13;;;12.68;;
36189;SDS011;22232;50.914;13.858;2024-01-30T07:39:22;20.80;;;11.43;;
36189;SDS011;22232;50.914;13.858;2024-01-30T07:41:50;30.85;;;12.43;;
36189;SDS011;22232;50.914;13.858;2024-01-30T07:44:17;22.27;;;11.95;;
36189;SDS011;22232;50.914;13.858;2024-01-30T07:46:45;23.30;;;11.75;;
36189;SDS011;22232;50.914;13.858;2024-01-30T07:49:12;21.48;;;11.38;;
36189;SDS011;22232;50.914;13.858;2024-01-30T07:51:42;24.98;;;12.32;;
36189;SDS011;22232;50.914;13.858;2024-01-30T07:54:12;23.20;;;11.95;;
36189;SDS011;22232;50.914;13.858;2024-01-30T07:56:40;20.38;;;10.45;;
36189;SDS011;22232;50.914;13.858;2024-01-30T07:59:11;21.08;;;11.52;;
36189;SDS011;22232;50.914;13.858;2024-01-30T08:01:39;19.83;;;10.85;;
36189;SDS011;22232;50.914;13.858;2024-01-30T08:04:06;21.65;;;11.75;;
36189;SDS011;22232;50.914;13.858;2024-01-30T08:06:34;24.33;;;11.23;;
36189;SDS011;22232;50.914;13.858;2024-01-30T08:09:02;19.83;;;10.93;;
36189;SDS011;22232;50.914;13.858;2024-01-30T08:11:29;21.15;;;11.05;;
36189;SDS011;22232;50.914;13.858;2024-01-30T08:13:57;22.75;;;11.63;;
36189;SDS011;22232;50.914;13.858;2024-01-30T08:16:25;19.88;;;11.15;;
36189;SDS011;22232;50.914;13.858;2024-01-30T08:18:52;19.02;;;10.43;;
36189;SDS011;22232;50.914;13.858;2024-01-30T08:21:23;20.65;;;11.18;;
36189;SDS011;22232;50.914;13.858;2024-01-30T08:23:51;21.63;;;11.55;;
36189;SDS011;22232;50.914;13.858;2024-01-30T08:26:19;20.45;;;10.43;;
36189;SDS011;22232;50.914;13.858;2024-01-30T08:28:46;20.83;;;11.50;;
36189;SDS011;22232;50.914;13.858;2024-01-30T08:31:14;20.77;;;10.25;;
36189;SDS011;22232;50.914;13.858;2024-01-30T08:33:42;20.65;;;10.50;;
36189;SDS011;22232;50.914;13.858;2024-01-30T08:36:11;24.00;;;10.02;;
36189;SDS011;22232;50.914;13.858;2024-01-30T08:38:39;18.13;;;9.95;;
36189;SDS011;22232;50.914;13.858;2024-01-30T08:41:07;19.42;;;9.95;;
36189;SDS011;22232;50.914;13.858;2024-01-30T08:43:35;21.35;;;9.90;;
36189;SDS011;22232;50.914;13.858;2024-01-30T08:46:03;19.38;;;10.60;;
36189;SDS011;22232;50.914;13.858;2024-01-30T08:48:31;17.75;;;9.60;;
36189;SDS011;22232;50.914;13.858;2024-01-30T08:50:59;17.50;;;9.07;;
36189;SDS011;22232;50.914;13.858;2024-01-30T08:53:26;16.55;;;9.57;;
36189;SDS011;22232;50.914;13.858;2024-01-30T08:55:54;22.55;;;10.40;;
36189;SDS011;22232;50.914;13.858;2024-01-30T08:58:22;18.15;;;9.80;;
36189;SDS011;22232;50.914;13.858;2024-01-30T09:00:49;17.05;;;9.55;;
36189;SDS011;22232;50.914;13.858;2024-01-30T09:03:19;19.02;;;10.20;;
36189;SDS011;22232;50.914;13.858;2024-01-30T09:05:46;19.55;;;9.82;;
36189;SDS011;22232;50.914;13.858;2024-01-30T09:08:14;20.95;;;10.55;;
36189;SDS011;22232;50.914;13.858;2024-01-30T09:10:41;18.23;;;10.30;;
36189;SDS011;22232;50.914;13.858;2024-01-30T09:13:09;17.35;;;10.18;;
36189;SDS011;22232;50.914;13.858;2024-01-30T09:15:37;20.83;;;10.48;;
36189;SDS011;22232;50.914;13.858;2024-01-30T09:18:05;20.30;;;10.23;;
36189;SDS011;22232;50.914;13.858;2024-01-30T09:20:34;19.77;;;10.02;;
36189;SDS011;22232;50.914;13.858;2024-01-30T09:23:01;19.30;;;10.73;;
36189;SDS011;22232;50.914;13.858;2024-01-30T09:25:29;17.02;;;9.30;;
36189;SDS011;22232;50.914;13.858;2024-01-30T09:27:56;20.50;;;10.20;;
36189;SDS011;22232;50.914;13.858;2024-01-30T09:30:24;20.33;;;10.13;;
36189;SDS011;22232;50.914;13.858;2024-01-30T09:32:52;19.58;;;9.80;;
36189;SDS011;22232;50.914;13.858;2024-01-30T09:35:19;18.08;;;9.88;;
36189;SDS011;22232;50.914;13.858;2024-01-30T09:37:47;18.65;;;10.38;;
36189;SDS011;22232;50.914;13.858;2024-01-30T09:40:15;20.00;;;10.88;;
36189;SDS011;22232;50.914;13.858;2024-01-30T09:42:46;20.75;;;10.98;;
36189;SDS011;22232;50.914;13.858;2024-01-30T09:45:18;21.33;;;11.15;;
36189;SDS011;22232;50.914;13.858;2024-01-30T09:47:48;18.45;;;10.43;;
36189;SDS011;22232;50.914;13.858;2024-01-30T09:50:16;20.90;;;10.90;;
36189;SDS011;22232;50.914;13.858;2024-01-30T09:52:45;21.77;;;10.88;;
36189;SDS011;22232;50.914;13.858;2024-01-30T09:55:13;20.17;;;10.55;;
36189;SDS011;22232;50.914;13.858;2024-01-30T09:57:41;22.55;;;11.02;;
36189;SDS011;22232;50.914;13.858;2024-01-30T10:00:10;18.17;;;10.55;;
36189;SDS011;22232;50.914;13.858;2024-01-30T10:02:39;20.58;;;10.27;;
36189;SDS011;22232;50.914;13.858;2024-01-30T10:05:07;22.23;;;11.07;;
36189;SDS011;22232;50.914;13.858;2024-01-30T10:07:36;18.73;;;9.68;;
36189;SDS011;22232;50.914;13.858;2024-01-30T10:10:05;22.20;;;10.88;;
36189;SDS011;22232;50.914;13.858;2024-01-30T10:12:34;20.13;;;10.45;;
36189;SDS011;22232;50.914;13.858;2024-01-30T10:15:01;18.67;;;10.35;;
36189;SDS011;22232;50.914;13.858;2024-01-30T10:17:29;20.25;;;10.98;;
36189;SDS011;22232;50.914;13.858;2024-01-30T10:20:00;17.80;;;9.98;;
36189;SDS011;22232;50.914;13.858;2024-01-30T10:22:32;19.50;;;10.18;;
36189;SDS011;22232;50.914;13.858;2024-01-30T10:25:00;18.92;;;9.93;;
36189;SDS011;22232;50.914;13.858;2024-01-30T10:27:32;19.60;;;10.30;;
36189;SDS011;22232;50.914;13.858;2024-01-30T10:30:00;18.83;;;9.75;;
36189;SDS011;22232;50.914;13.858;2024-01-30T10:32:28;21.55;;;10.80;;
36189;SDS011;22232;50.914;13.858;2024-01-30T10:34:55;20.25;;;10.63;;
36189;SDS011;22232;50.914;13.858;2024-01-30T10:37:25;18.05;;;10.20;;
36189;SDS011;22232;50.914;13.858;2024-01-30T10:39:53;18.92;;;10.35;;
36189;SDS011;22232;50.914;13.858;2024-01-30T10:42:25;17.73;;;10.57;;
36189;SDS011;22232;50.914;13.858;2024-01-30T10:45:06;22.02;;;11.45;;
36189;SDS011;22232;50.914;13.858;2024-01-30T10:47:36;20.88;;;10.77;;
36189;SDS011;22232;50.914;13.858;2024-01-30T10:50:05;22.27;;;12.15;;
36189;SDS011;22232;50.914;13.858;2024-01-30T10:52:33;21.15;;;11.60;;
36189;SDS011;22232;50.914;13.858;2024-01-30T10:55:01;22.13;;;10.93;;
36189;SDS011;22232;50.914;13.858;2024-01-30T10:57:31;22.13;;;11.43;;
36189;SDS011;22232;50.914;13.858;2024-01-30T11:00:02;24.70;;;11.48;;
36189;SDS011;22232;50.914;13.858;2024-01-30T11:02:39;21.52;;;11.18;;
36189;SDS011;22232;50.914;13.858;2024-01-30T11:05:09;25.70;;;12.30;;
36189;SDS011;22232;50.914;13.858;2024-01-30T11:07:38;23.10;;;11.35;;
36189;SDS011;22232;50.914;13.858;2024-01-30T11:10:11;22.02;;;11.48;;
36189;SDS011;22232;50.914;13.858;2024-01-30T11:12:42;19.92;;;11.02;;
36189;SDS011;22232;50.914;13.858;2024-01-30T11:15:12;22.77;;;11.02;;
36189;SDS011;22232;50.914;13.858;2024-01-30T11:20:27;21.27;;;10.63;;
36189;SDS011;22232;50.914;13.858;2024-01-30T11:23:01;18.40;;;9.43;;
36189;SDS011;22232;50.914;13.858;2024-01-30T11:25:33;15.83;;;9.37;;
36189;SDS011;22232;50.914;13.858;2024-01-30T11:28:01;24.50;;;10.25;;
36189;SDS011;22232;50.914;13.858;2024-01-30T11:30:32;21.20;;;10.35;;
36189;SDS011;22232;50.914;13.858;2024-01-30T11:33:08;22.50;;;10.13;;
36189;SDS011;22232;50.914;13.858;2024-01-30T11:35:43;17.10;;;9.32;;
36189;SDS011;22232;50.914;13.858;2024-01-30T11:38:15;15.47;;;9.37;;
36189;SDS011;22232;50.914;13.858;2024-01-30T11:40:43;18.42;;;9.18;;
36189;SDS011;22232;50.914;13.858;2024-01-30T11:43:11;16.98;;;8.43;;
36189;SDS011;22232;50.914;13.858;2024-01-30T11:45:39;17.95;;;9.40;;
36189;SDS011;22232;50.914;13.858;2024-01-30T11:48:07;17.95;;;9.57;;
36189;SDS011;22232;50.914;13.858;2024-01-30T11:50:38;14.98;;;9.20;;
36189;SDS011;22232;50.914;13.858;2024-01-30T11:53:07;17.88;;;9.38;;
36189;SDS011;22232;50.914;13.858;2024-01-30T11:55:35;22.17;;;9.95;;
36189;SDS011;22232;50.914;13.858;2024-01-30T11:58:05;19.63;;;9.43;;
36189;SDS011;22232;50.914;13.858;2024-01-30T12:00:33;19.23;;;9.60;;
36189;SDS011;22232;50.914;13.858;2024-01-30T12:03:02;19.08;;;10.13;;
36189;SDS011;22232;50.914;13.858;2024-01-30T12:05:31;19.10;;;10.13;;
36189;SDS011;22232;50.914;13.858;2024-01-30T12:07:59;15.40;;;9.80;;
36189;SDS011;22232;50.914;13.858;2024-01-30T12:10:28;17.63;;;9.80;;
36189;SDS011;22232;50.914;13.858;2024-01-30T12:12:56;19.70;;;10.25;;
36189;SDS011;22232;50.914;13.858;2024-01-30T12:15:25;20.85;;;10.52;;
36189;SDS011;22232;50.914;13.858;2024-01-30T12:18:03;18.15;;;9.93;;
36189;SDS011;22232;50.914;13.858;2024-01-30T12:20:34;21.80;;;10.75;;
36189;SDS011;22232;50.914;13.858;2024-01-30T12:23:03;20.33;;;11.18;;
36189;SDS011;22232;50.914;13.858;2024-01-30T12:25:30;22.00;;;10.93;;
36189;SDS011;22232;50.914;13.858;2024-01-30T12:27:59;18.75;;;9.93;;
36189;SDS011;22232;50.914;13.858;2024-01-30T12:30:27;22.08;;;11.30;;
36189;SDS011;22232;50.914;13.858;2024-01-30T12:32:55;20.38;;;11.52;;
36189;SDS011;22232;50.914;13.858;2024-01-30T12:35:23;25.92;;;11.43;;
36189;SDS011;22232;50.914;13.858;2024-01-30T12:37:50;19.75;;;11.15;;
36189;SDS011;22232;50.914;13.858;2024-01-30T12:40:18;20.95;;;11.82;;
36189;SDS011;22232;50.914;13.858;2024-01-30T12:42:46;15.38;;;9.63;;
36189;SDS011;22232;50.914;13.858;2024-01-30T12:45:17;22.45;;;10.70;;
36189;SDS011;22232;50.914;13.858;2024-01-30T12:47:50;19.02;;;10.25;;
36189;SDS011;22232;50.914;13.858;2024-01-30T12:50:19;17.88;;;9.63;;
36189;SDS011;22232;50.914;13.858;2024-01-30T12:52:46;24.65;;;11.25;;
36189;SDS011;22232;50.914;13.858;2024-01-30T12:55:16;19.73;;;10.40;;
36189;SDS011;22232;50.914;13.858;2024-01-30T12:57:45;21.80;;;11.00;;
36189;SDS011;22232;50.914;13.858;2024-01-30T13:00:13;21.23;;;11.13;;
36189;SDS011;22232;50.914;13.858;2024-01-30T13:02:41;21.23;;;10.95;;
36189;SDS011;22232;50.914;13.858;2024-01-30T13:05:12;21.95;;;11.15;;
36189;SDS011;22232;50.914;13.858;2024-01-30T13:07:40;21.63;;;11.30;;
36189;SDS011;22232;50.914;13.858;2024-01-30T13:10:07;20.52;;;11.27;;
36189;SDS011;22232;50.914;13.858;2024-01-30T13:12:35;22.70;;;10.70;;
36189;SDS011;22232;50.914;13.858;2024-01-30T13:15:03;22.73;;;11.65;;
36189;SDS011;22232;50.914;13.858;2024-01-30T13:17:32;22.20;;;12.18;;
36189;SDS011;22232;50.914;13.858;2024-01-30T13:20:00;22.55;;;12.15;;
36189;SDS011;22232;50.914;13.858;2024-01-30T13:22:37;24.52;;;12.02;;
36189;SDS011;22232;50.914;13.858;2024-01-30T13:25:06;21.23;;;10.55;;
36189;SDS011;22232;50.914;13.858;2024-01-30T13:27:35;22.27;;;11.00;;
36189;SDS011;22232;50.914;13.858;2024-01-30T13:30:06;21.52;;;11.13;;
36189;SDS011;22232;50.914;13.858;2024-01-30T13:32:34;19.77;;;11.13;;
36189;SDS011;22232;50.914;13.858;2024-01-30T13:35:03;20.00;;;10.60;;
36189;SDS011;22232;50.914;13.858;2024-01-30T13:37:31;20.95;;;10.57;;
36189;SDS011;22232;50.914;13.858;2024-01-30T13:39:58;22.95;;;10.90;;
36189;SDS011;22232;50.914;13.858;2024-01-30T13:42:28;20.50;;;10.60;;
36189;SDS011;22232;50.914;13.858;2024-01-30T13:44:56;21.60;;;11.05;;
36189;SDS011;22232;50.914;13.858;2024-01-30T13:47:24;18.05;;;10.55;;
36189;SDS011;22232;50.914;13.858;2024-01-30T13:49:52;23.95;;;11.68;;
36189;SDS011;22232;50.914;13.858;2024-01-30T13:52:20;20.67;;;10.50;;
36189;SDS011;22232;50.914;13.858;2024-01-30T13:54:54;19.38;;;10.63;;
36189;SDS011;22232;50.914;13.858;2024-01-30T13:57:22;22.85;;;12.50;;
36189;SDS011;22232;50.914;13.858;2024-01-30T13:59:50;24.60;;;11.95;;
36189;SDS011;22232;50.914;13.858;2024-01-30T14:02:18;21.40;;;10.60;;
36189;SDS011;22232;50.914;13.858;2024-01-30T14:04:45;23.02;;;11.93;;
36189;SDS011;22232;50.914;13.858;2024-01-30T14:07:13;24.98;;;13.10;;
36189;SDS011;22232;50.914;13.858;2024-01-30T14:09:41;26.90;;;13.55;;
36189;SDS011;22232;50.914;13.858;2024-01-30T14:12:08;23.33;;;13.25;;
36189;SDS011;22232;50.914;13.858;2024-01-30T14:14:36;22.90;;;12.75;;
36189;SDS011;22232;50.914;13.858;2024-01-30T14:17:04;22.63;;;12.13;;
36189;SDS011;22232;50.914;13.858;2024-01-30T14:19:34;25.48;;;12.70;;
36189;SDS011;22232;50.914;13.858;2024-01-30T14:22:03;22.42;;;11.88;;